createdAt,value
2023-05-02T00:01:31.132Z,46.00
2023-05-02T00:03:33.311Z,45.58
2023-05-02T00:05:35.017Z,45.44
2023-05-02T00:07:36.738Z,45.85
2023-05-02T00:09:38.665Z,45.44
2023-05-02T00:11:40.678Z,45.45
2023-05-02T00:13:44.026Z,45.23
2023-05-02T00:15:45.850Z,45.99
2023-05-02T00:17:47.888Z,45.33
2023-05-02T00:19:49.621Z,45.71
2023-05-02T00:21:51.538Z,45.48
2023-05-02T00:23:53.596Z,45.46
2023-05-02T00:25:55.244Z,45.93
2023-05-02T00:27:56.879Z,45.67
2023-05-02T00:30:00.669Z,45.99
2023-05-02T00:32:02.812Z,45.86
2023-05-02T00:34:04.423Z,46.53
2023-05-02T00:36:13.940Z,45.16
2023-05-02T00:38:15.565Z,46.38
2023-05-02T00:40:17.664Z,46.31
2023-05-02T00:42:19.530Z,46.30
2023-05-02T00:44:21.400Z,46.41
2023-05-02T00:46:24.497Z,46.71
2023-05-02T00:48:26.545Z,46.74
2023-05-02T00:50:29.707Z,46.76
2023-05-02T00:52:31.582Z,47.47
2023-05-02T00:54:33.605Z,47.12
2023-05-02T00:56:35.482Z,47.39
2023-05-02T00:58:40.450Z,47.79
2023-05-02T01:00:55.353Z,47.01
2023-05-02T01:03:09.537Z,47.31
2023-05-02T01:05:15.553Z,47.82
2023-05-02T01:07:41.002Z,46.57
2023-05-02T01:09:57.930Z,47.24
2023-05-02T01:12:02.011Z,48.17
2023-05-02T01:14:09.190Z,48.40
2023-05-02T01:16:12.548Z,48.64
2023-05-02T01:18:18.639Z,48.48
2023-05-02T01:20:23.474Z,48.97
2023-05-02T01:22:28.590Z,48.89
2023-05-02T01:24:35.961Z,48.86
2023-05-02T01:26:51.489Z,47.72
2023-05-02T01:29:09.195Z,47.12
2023-05-02T01:31:12.463Z,48.86
2023-05-02T01:33:17.287Z,49.07
2023-05-02T01:35:21.677Z,48.90
2023-05-02T01:37:24.836Z,49.53
2023-05-02T01:39:27.355Z,49.33
2023-05-02T01:41:32.376Z,49.58
2023-05-02T01:43:36.537Z,49.83
2023-05-02T01:45:44.059Z,49.82
2023-05-02T01:47:46.727Z,49.77
2023-05-02T01:49:48.602Z,50.38
2023-05-02T01:51:52.196Z,50.30
2023-05-02T01:53:54.570Z,50.63
2023-05-02T01:55:59.052Z,50.99
2023-05-02T01:58:01.761Z,51.76
2023-05-02T02:00:04.952Z,51.33
2023-05-02T02:02:11.921Z,51.40
2023-05-02T02:04:15.715Z,52.33
2023-05-02T02:06:19.750Z,52.26
2023-05-02T02:08:21.488Z,52.30
2023-05-02T02:10:26.617Z,52.43
2023-05-02T02:12:32.368Z,53.10
2023-05-02T02:14:37.197Z,53.00
2023-05-02T02:16:41.631Z,53.04
2023-05-02T02:18:45.283Z,52.87
2023-05-02T02:20:48.302Z,53.16
2023-05-02T02:22:51.819Z,53.69
2023-05-02T02:24:54.693Z,53.64
2023-05-02T02:26:56.526Z,53.60
2023-05-02T02:28:58.525Z,53.89
2023-05-02T02:31:00.396Z,53.74
2023-05-02T02:33:02.058Z,54.19
2023-05-02T02:35:08.713Z,53.92
2023-05-02T02:37:16.625Z,53.91
2023-05-02T02:39:36.046Z,53.08
2023-05-02T02:41:42.859Z,55.11
2023-05-02T02:43:53.588Z,54.64
2023-05-02T02:46:02.913Z,55.10
2023-05-02T02:48:17.346Z,54.00
2023-05-02T02:50:30.493Z,53.99
2023-05-02T02:52:40.805Z,54.27
2023-05-02T02:54:47.379Z,55.37
2023-05-02T02:56:56.545Z,56.16
2023-05-02T02:59:04.981Z,55.80
2023-05-02T03:01:15.344Z,55.76
2023-05-02T03:03:18.640Z,56.52
2023-05-02T03:05:23.030Z,56.71
2023-05-02T03:07:28.103Z,56.81
2023-05-02T03:09:41.014Z,56.01
2023-05-02T03:11:42.977Z,58.41
2023-05-02T03:13:45.227Z,58.48
2023-05-02T03:16:25.176Z,54.90
2023-05-02T03:18:27.301Z,59.05
2023-05-02T03:20:30.854Z,58.46
2023-05-02T03:22:32.653Z,59.24
2023-05-02T03:24:34.464Z,59.09
2023-05-02T03:26:36.280Z,59.69
2023-05-02T03:28:38.075Z,59.53
2023-05-02T03:30:39.941Z,60.44
2023-05-02T03:32:41.760Z,60.78
2023-05-02T03:34:43.947Z,61.44
2023-05-02T03:36:47.086Z,61.61
2023-05-02T03:38:48.989Z,61.94
2023-05-02T03:40:50.802Z,62.90
2023-05-02T03:42:53.018Z,63.19
2023-05-02T03:44:54.964Z,63.34
2023-05-02T03:46:56.764Z,63.61
2023-05-02T03:48:58.778Z,64.10
2023-05-02T03:51:00.942Z,63.94
2023-05-02T03:53:04.232Z,64.49
2023-05-02T03:55:07.069Z,64.57
2023-05-02T03:57:08.994Z,65.42
2023-05-02T03:59:10.849Z,65.04
2023-05-02T04:01:16.832Z,64.23
2023-05-02T04:03:18.730Z,65.06
2023-05-02T04:05:20.807Z,65.29
2023-05-02T04:07:22.882Z,64.85
2023-05-02T04:09:28.158Z,63.31
2023-05-02T04:11:30.579Z,64.95
2023-05-02T04:13:32.216Z,64.96
2023-05-02T04:15:33.972Z,65.01
2023-05-02T04:17:35.884Z,64.59
2023-05-02T04:19:37.749Z,64.80
2023-05-02T04:21:39.549Z,64.35
2023-05-02T04:23:41.208Z,64.88
2023-05-02T04:25:51.312Z,62.55
2023-05-02T04:27:52.921Z,64.84
2023-05-02T04:29:54.955Z,65.60
2023-05-02T04:31:56.710Z,65.67
2023-05-02T04:33:58.674Z,65.59
2023-05-02T04:36:00.309Z,65.83
2023-05-02T04:38:02.162Z,66.13
2023-05-02T04:40:04.531Z,66.02
2023-05-02T04:42:08.056Z,66.11
2023-05-02T04:44:09.582Z,66.29
2023-05-02T04:46:11.386Z,66.65
2023-05-02T04:48:13.066Z,66.79
2023-05-02T04:50:15.302Z,66.69
2023-05-02T04:52:16.953Z,66.40
2023-05-02T04:54:19.164Z,67.04
2023-05-02T04:56:21.012Z,66.92
2023-05-02T04:58:24.511Z,66.93
2023-05-02T05:00:26.233Z,66.84
2023-05-02T05:02:28.163Z,67.39
2023-05-02T05:04:29.976Z,67.42
2023-05-02T05:06:31.945Z,66.70
2023-05-02T05:08:33.730Z,68.09
2023-05-02T05:10:35.396Z,68.20
2023-05-02T05:12:39.449Z,67.80
2023-05-02T05:14:42.439Z,67.66
2023-05-02T05:16:44.614Z,67.71
2023-05-02T05:18:47.782Z,68.53
2023-05-02T05:20:51.819Z,68.21
2023-05-02T05:22:53.453Z,68.45
2023-05-02T05:24:55.288Z,68.79
2023-05-02T05:26:57.329Z,68.83
2023-05-02T05:28:59.210Z,69.46
2023-05-02T05:31:07.063Z,67.01
2023-05-02T05:33:08.723Z,69.94
2023-05-02T05:35:11.204Z,71.00
2023-05-02T05:37:12.855Z,71.30
2023-05-02T05:39:14.517Z,71.37
2023-05-02T05:41:16.345Z,71.85
2023-05-02T05:43:18.200Z,71.41
2023-05-02T05:45:20.037Z,70.81
2023-05-02T05:47:23.507Z,69.49
2023-05-02T05:49:26.374Z,69.02
2023-05-02T05:51:29.511Z,69.80
2023-05-02T05:53:31.544Z,68.87
2023-05-02T05:55:33.787Z,69.06
2023-05-02T05:57:37.260Z,68.33
2023-05-02T05:59:38.790Z,68.18
2023-05-02T06:01:41.723Z,67.52
2023-05-02T06:03:44.952Z,67.62
2023-05-02T06:05:46.614Z,67.27
2023-05-02T06:07:48.526Z,67.37
2023-05-02T06:09:50.072Z,67.00
2023-05-02T06:11:51.747Z,66.96
2023-05-02T06:13:53.974Z,66.57
2023-05-02T06:15:55.652Z,66.00
2023-05-02T06:17:57.603Z,65.30
2023-05-02T06:20:01.143Z,65.40
2023-05-02T06:22:03.056Z,65.08
2023-05-02T06:24:05.470Z,64.81
2023-05-02T06:26:07.132Z,64.86
2023-05-02T06:28:08.753Z,65.04
2023-05-02T06:30:11.951Z,64.63
2023-05-02T06:32:13.537Z,65.10
2023-05-02T06:34:15.124Z,64.12
2023-05-02T06:36:18.139Z,63.62
2023-05-02T06:38:19.826Z,62.22
2023-05-02T06:40:22.163Z,62.02
2023-05-02T06:42:23.744Z,61.92
2023-05-02T06:44:25.503Z,62.54
2023-05-02T06:46:29.264Z,62.25
2023-05-02T06:48:31.014Z,62.34
2023-05-02T06:50:33.008Z,61.18
2023-05-02T06:52:36.105Z,61.96
2023-05-02T06:54:38.071Z,61.19
2023-05-02T06:56:39.704Z,61.74
2023-05-02T06:58:41.314Z,61.00
2023-05-02T07:00:42.980Z,60.82
2023-05-02T07:02:46.028Z,61.13
2023-05-02T07:04:48.013Z,61.21
2023-05-02T07:06:49.784Z,60.99
2023-05-02T07:08:52.857Z,61.10
2023-05-02T07:10:54.549Z,59.46
2023-05-02T07:12:56.081Z,59.57
2023-05-02T07:14:57.707Z,59.07
2023-05-02T07:16:59.428Z,58.33
2023-05-02T07:19:01.305Z,57.73
2023-05-02T07:21:03.048Z,57.48
2023-05-02T07:23:04.709Z,57.30
2023-05-02T07:25:08.888Z,56.61
2023-05-02T07:27:11.534Z,56.46
2023-05-02T07:29:13.346Z,56.80
2023-05-02T07:31:16.960Z,55.97
2023-05-02T07:33:19.843Z,55.54
2023-05-02T07:35:21.469Z,54.35
2023-05-02T07:37:23.280Z,54.39
2023-05-02T07:39:25.479Z,54.16
2023-05-02T07:41:28.943Z,54.25
2023-05-02T07:43:30.533Z,53.91
2023-05-02T07:45:32.470Z,53.23
2023-05-02T07:47:34.106Z,51.65
2023-05-02T07:49:35.841Z,50.97
2023-05-02T07:51:37.335Z,51.06
2023-05-02T07:53:39.362Z,49.81
2023-05-02T07:55:40.883Z,50.20
2023-05-02T07:57:44.115Z,50.52
2023-05-02T07:59:46.267Z,50.19
2023-05-02T08:01:48.045Z,48.58
2023-05-02T08:03:49.787Z,47.74
2023-05-02T08:05:51.620Z,46.69
2023-05-02T08:07:53.286Z,47.07
2023-05-02T08:09:55.070Z,47.54
2023-05-02T08:11:56.837Z,47.84
2023-05-02T08:13:59.800Z,47.33
2023-05-02T08:16:01.437Z,46.14
2023-05-02T08:18:03.334Z,45.59
2023-05-02T08:20:06.164Z,45.64
2023-05-02T08:22:07.816Z,45.78
2023-05-02T08:24:09.362Z,45.84
2023-05-02T08:26:11.183Z,45.02
2023-05-02T08:28:12.809Z,45.39
2023-05-02T08:30:15.948Z,44.65
2023-05-02T08:32:17.853Z,44.38
2023-05-02T08:34:19.482Z,44.59
2023-05-02T08:36:21.290Z,43.47
2023-05-02T08:38:23.268Z,43.81
2023-05-02T08:40:33.890Z,44.36
2023-05-02T08:42:43.914Z,43.57
2023-05-02T08:44:45.808Z,43.30
2023-05-02T08:46:51.639Z,43.25
2023-05-02T08:48:54.005Z,44.09
2023-05-02T08:50:56.676Z,43.52
2023-05-02T08:52:59.500Z,43.36
2023-05-02T08:55:02.484Z,43.57
2023-05-02T08:57:05.497Z,43.83
2023-05-02T08:59:07.273Z,44.39
2023-05-02T09:01:13.783Z,44.16
2023-05-02T09:03:28.161Z,44.46
2023-05-02T09:05:37.897Z,43.69
2023-05-02T09:07:47.432Z,42.48
2023-05-02T09:09:49.291Z,43.13
2023-05-02T09:11:52.484Z,42.98
2023-05-02T09:13:54.489Z,42.77
2023-05-02T09:16:00.497Z,43.03
2023-05-02T09:18:02.737Z,42.94
2023-05-02T09:20:07.652Z,43.25
2023-05-02T09:22:09.516Z,43.49
2023-05-02T09:24:22.163Z,43.16
2023-05-02T09:26:25.323Z,42.13
2023-05-02T09:28:41.426Z,42.90
2023-05-02T09:30:43.349Z,41.85
2023-05-02T09:32:45.941Z,41.51
2023-05-02T09:35:07.143Z,41.59
2023-05-02T09:37:08.985Z,41.68
2023-05-02T09:39:12.587Z,41.13
2023-05-02T09:41:14.646Z,40.92
2023-05-02T09:43:16.414Z,41.20
2023-05-02T09:45:25.548Z,41.53
2023-05-02T09:47:27.604Z,41.37
2023-05-02T09:49:43.115Z,42.38
2023-05-02T09:51:47.364Z,41.23
2023-05-02T09:53:49.753Z,41.70
2023-05-02T09:56:00.660Z,42.35
2023-05-02T09:58:02.318Z,41.20
2023-05-02T10:00:04.850Z,41.97
2023-05-02T10:02:07.340Z,41.53
2023-05-02T10:04:13.156Z,41.83
2023-05-02T10:06:15.945Z,41.25
2023-05-02T10:08:19.530Z,41.14
2023-05-02T10:10:21.385Z,40.68
2023-05-02T10:12:26.901Z,40.83
2023-05-02T10:14:29.562Z,40.24
2023-05-02T10:16:36.728Z,40.50
2023-05-02T10:18:42.854Z,40.25
2023-05-02T10:20:56.080Z,40.70
2023-05-02T10:23:00.338Z,40.31
2023-05-02T10:25:04.224Z,39.98
2023-05-02T10:27:06.509Z,39.71
2023-05-02T10:29:08.517Z,40.12
2023-05-02T10:31:11.137Z,40.25
2023-05-02T10:33:14.874Z,40.15
2023-05-02T10:35:17.249Z,39.59
2023-05-02T10:37:19.840Z,39.46
2023-05-02T10:39:21.938Z,37.94
2023-05-02T10:41:29.066Z,38.27
2023-05-02T10:43:34.397Z,38.18
2023-05-02T10:45:37.484Z,38.49
2023-05-02T10:47:39.102Z,38.20
2023-05-02T10:49:50.410Z,38.57
2023-05-02T10:51:52.270Z,37.11
2023-05-02T10:53:54.425Z,36.94
2023-05-02T10:56:16.792Z,38.58
2023-05-02T10:58:23.249Z,37.28
2023-05-02T11:00:26.158Z,36.57
2023-05-02T11:02:50.075Z,38.13
2023-05-02T11:05:03.595Z,37.57
2023-05-02T11:07:18.592Z,37.28
2023-05-02T11:09:33.226Z,37.58
2023-05-02T11:11:41.991Z,37.00
2023-05-02T11:13:53.122Z,37.51
2023-05-02T11:15:55.402Z,35.83
2023-05-02T11:18:01.329Z,37.24
2023-05-02T11:20:24.537Z,37.00
2023-05-02T11:22:33.921Z,35.83
2023-05-02T11:24:39.190Z,35.32
2023-05-02T11:26:41.450Z,36.00
2023-05-02T11:28:44.360Z,35.93
2023-05-02T11:30:47.451Z,35.81
2023-05-02T11:33:14.892Z,37.15
2023-05-02T11:35:17.749Z,37.23
2023-05-02T11:37:20.633Z,37.14
2023-05-02T11:39:22.576Z,37.47
2023-05-02T11:41:38.068Z,37.52
2023-05-02T11:43:39.911Z,37.97
2023-05-02T11:45:42.207Z,37.26
2023-05-02T11:47:45.899Z,36.57
2023-05-02T11:49:47.988Z,38.02
2023-05-02T11:51:50.015Z,37.30
2023-05-02T11:53:52.735Z,36.73
2023-05-02T11:55:56.108Z,36.39
2023-05-02T11:57:59.267Z,36.69
2023-05-02T12:00:01.106Z,36.25
2023-05-02T12:02:02.751Z,36.47
2023-05-02T12:04:07.966Z,37.04
2023-05-02T12:06:11.482Z,37.39
2023-05-02T12:08:18.965Z,37.96
2023-05-02T12:10:20.840Z,36.91
2023-05-02T12:12:22.524Z,37.18
2023-05-02T12:14:28.474Z,36.35
2023-05-02T12:16:30.497Z,36.42
2023-05-02T12:18:32.903Z,36.77
2023-05-02T12:20:36.489Z,36.27
2023-05-02T12:22:38.322Z,35.46
2023-05-02T12:24:40.066Z,34.71
2023-05-02T12:26:41.693Z,35.24
2023-05-02T12:28:48.892Z,35.66
2023-05-02T12:30:51.796Z,34.51
2023-05-02T12:32:56.538Z,35.11
2023-05-02T12:34:58.678Z,35.73
2023-05-02T12:37:01.604Z,34.43
2023-05-02T12:39:03.297Z,33.38
2023-05-02T12:41:05.698Z,33.57
2023-05-02T12:43:07.360Z,32.85
2023-05-02T12:45:17.566Z,31.16
2023-05-02T12:47:20.126Z,32.40
2023-05-02T12:49:21.809Z,34.18
2023-05-02T12:51:23.464Z,33.70
2023-05-02T12:53:43.667Z,35.39
2023-05-02T12:55:45.508Z,33.91
2023-05-02T12:57:47.387Z,34.49
2023-05-02T12:59:52.156Z,33.92
2023-05-02T13:01:53.924Z,34.84
2023-05-02T13:03:55.732Z,33.15
2023-05-02T13:05:57.625Z,32.15
2023-05-02T13:07:59.272Z,32.01
2023-05-02T13:10:02.550Z,31.41
2023-05-02T13:12:04.994Z,31.12
2023-05-02T13:14:06.642Z,30.84
2023-05-02T13:16:08.857Z,30.57
2023-05-02T13:18:10.926Z,30.40
2023-05-02T13:20:13.333Z,32.28
2023-05-02T13:22:14.923Z,32.24
2023-05-02T13:24:16.782Z,33.08
2023-05-02T13:26:19.799Z,33.09
2023-05-02T13:28:21.539Z,33.36
2023-05-02T13:30:23.080Z,32.69
2023-05-02T13:32:24.652Z,33.80
2023-05-02T13:34:26.426Z,32.84
2023-05-02T13:36:28.171Z,32.54
2023-05-02T13:38:29.941Z,32.52
2023-05-02T13:40:31.509Z,32.25
2023-05-02T13:42:35.951Z,32.83
2023-05-02T13:44:37.933Z,32.16
2023-05-02T13:46:39.615Z,32.35
2023-05-02T13:48:41.329Z,33.89
2023-05-02T13:50:42.919Z,33.58
2023-05-02T13:52:45.479Z,33.38
2023-05-02T13:54:48.964Z,33.14
2023-05-02T13:56:50.507Z,33.97
2023-05-02T13:58:53.806Z,34.30
2023-05-02T14:00:55.310Z,34.01
2023-05-02T14:02:57.075Z,33.39
2023-05-02T14:04:59.105Z,32.44
2023-05-02T14:07:00.720Z,32.33
2023-05-02T14:09:03.350Z,32.39
2023-05-02T14:11:07.190Z,32.21
2023-05-02T14:13:09.036Z,32.19
2023-05-02T14:15:13.022Z,31.79
2023-05-02T14:17:14.621Z,31.90
2023-05-02T14:19:16.339Z,32.25
2023-05-02T14:21:18.241Z,32.23
2023-05-02T14:23:19.936Z,32.27
2023-05-02T14:25:21.961Z,33.82
2023-05-02T14:27:23.869Z,34.28
2023-05-02T14:29:25.715Z,33.68
2023-05-02T14:31:29.131Z,34.38
2023-05-02T14:33:31.052Z,34.43
2023-05-02T14:35:33.047Z,33.53
2023-05-02T14:37:34.705Z,34.29
2023-05-02T14:39:37.049Z,34.70
2023-05-02T14:41:38.939Z,34.16
2023-05-02T14:43:40.838Z,34.59
2023-05-02T14:45:42.418Z,34.22
2023-05-02T14:47:45.494Z,35.34
2023-05-02T14:49:47.431Z,35.09
2023-05-02T14:51:49.247Z,35.18
2023-05-02T14:53:51.147Z,35.14
2023-05-02T14:55:52.912Z,35.14
2023-05-02T14:57:56.014Z,34.80
2023-05-02T14:59:57.680Z,35.16
2023-05-02T15:01:59.500Z,35.34
2023-05-02T15:04:06.625Z,35.24
2023-05-02T15:06:09.150Z,34.22
2023-05-02T15:08:10.788Z,34.31
2023-05-02T15:10:12.396Z,34.77
2023-05-02T15:12:13.911Z,33.86
2023-05-02T15:14:15.501Z,33.84
2023-05-02T15:16:18.538Z,35.04
2023-05-02T15:18:20.232Z,34.46
2023-05-02T15:20:23.380Z,33.93
2023-05-02T15:22:25.149Z,34.24
2023-05-02T15:24:27.379Z,34.12
2023-05-02T15:26:29.761Z,33.25
2023-05-02T15:28:31.602Z,33.67
2023-05-02T15:30:33.188Z,32.55
2023-05-02T15:32:35.208Z,33.54
2023-05-02T15:34:36.871Z,32.96
2023-05-02T15:36:40.057Z,32.88
2023-05-02T15:38:41.710Z,31.91
2023-05-02T15:40:43.227Z,32.23
2023-05-02T15:42:45.036Z,32.45
2023-05-02T15:44:46.641Z,32.71
2023-05-02T15:46:48.386Z,32.30
2023-05-02T15:48:50.192Z,33.09
2023-05-02T15:50:51.791Z,33.42
2023-05-02T15:52:55.235Z,33.85
2023-05-02T15:54:56.883Z,33.13
2023-05-02T15:56:58.535Z,33.81
2023-05-02T15:59:00.133Z,33.15
2023-05-02T16:01:01.709Z,34.08
2023-05-02T16:03:04.098Z,34.13
2023-05-02T16:05:06.574Z,34.78
2023-05-02T16:07:08.189Z,35.67
2023-05-02T16:09:11.492Z,35.33
2023-05-02T16:11:13.444Z,35.65
2023-05-02T16:13:15.100Z,35.21
2023-05-02T16:15:17.155Z,36.06
2023-05-02T16:17:18.701Z,35.14
2023-05-02T16:19:22.711Z,34.14
2023-05-02T16:21:24.572Z,34.23
2023-05-02T16:23:26.485Z,34.54
2023-05-02T16:25:29.869Z,34.81
2023-05-02T16:27:31.399Z,34.48
2023-05-02T16:29:32.973Z,34.32
2023-05-02T16:31:34.602Z,33.71
2023-05-02T16:33:36.417Z,34.39
2023-05-02T16:35:37.976Z,34.70
2023-05-02T16:37:40.290Z,34.68
2023-05-02T16:39:42.201Z,34.29
2023-05-02T16:41:45.105Z,34.76
2023-05-02T16:43:46.886Z,34.85
2023-05-02T16:45:48.490Z,35.01
2023-05-02T16:47:50.155Z,34.95
2023-05-02T16:49:55.073Z,35.50
2023-05-02T16:51:56.609Z,35.40
2023-05-02T16:53:58.601Z,35.31
2023-05-02T16:56:00.644Z,34.57
2023-05-02T16:58:04.020Z,34.96
2023-05-02T17:00:07.172Z,34.94
2023-05-02T17:02:08.727Z,34.96
2023-05-02T17:04:10.524Z,35.36
2023-05-02T17:06:12.077Z,34.85
2023-05-02T17:08:13.691Z,35.60
2023-05-02T17:10:15.775Z,34.58
2023-05-02T17:12:17.620Z,35.08
2023-05-02T17:14:20.533Z,35.50
2023-05-02T17:16:22.298Z,35.51
2023-05-02T17:18:23.966Z,35.85
2023-05-02T17:20:25.571Z,36.22
2023-05-02T17:22:27.237Z,36.29
2023-05-02T17:24:29.685Z,36.69
2023-05-02T17:26:31.335Z,36.46
2023-05-02T17:28:32.891Z,36.50
2023-05-02T17:30:36.109Z,36.27
2023-05-02T17:32:39.929Z,36.10
2023-05-02T17:34:41.655Z,36.53
2023-05-02T17:36:43.171Z,36.35
2023-05-02T17:38:45.136Z,36.64
2023-05-02T17:40:47.808Z,36.25
2023-05-02T17:42:50.051Z,36.50
2023-05-02T17:44:52.848Z,34.76
2023-05-02T17:46:56.287Z,34.82
2023-05-02T17:48:57.888Z,34.83
2023-05-02T17:51:01.446Z,35.38
2023-05-02T17:53:04.288Z,35.24
2023-05-02T17:55:07.558Z,35.00
2023-05-02T17:57:09.320Z,35.64
2023-05-02T17:59:11.009Z,35.74
2023-05-02T18:01:13.354Z,35.80
2023-05-02T18:03:16.484Z,36.26
2023-05-02T18:05:18.493Z,36.35
2023-05-02T18:07:20.127Z,36.88
2023-05-02T18:09:22.065Z,36.62
2023-05-02T18:11:23.650Z,36.98
2023-05-02T18:13:25.303Z,37.23
2023-05-02T18:15:26.937Z,37.45
2023-05-02T18:17:28.596Z,37.60
2023-05-02T18:19:33.749Z,37.72
2023-05-02T18:21:35.341Z,37.63
2023-05-02T18:23:37.382Z,38.18
2023-05-02T18:25:38.933Z,38.22
2023-05-02T18:27:40.554Z,38.87
2023-05-02T18:29:42.414Z,38.90
2023-05-02T18:31:44.229Z,38.86
2023-05-02T18:33:46.210Z,39.75
2023-05-02T18:35:49.284Z,39.33
2023-05-02T18:37:51.148Z,39.83
2023-05-02T18:39:53.012Z,40.10
2023-05-02T18:41:54.909Z,40.29
2023-05-02T18:43:58.666Z,40.14
2023-05-02T18:46:01.897Z,40.30
2023-05-02T18:48:04.193Z,40.34
2023-05-02T18:50:08.726Z,40.09
2023-05-02T18:52:12.474Z,40.54
2023-05-02T18:54:14.077Z,40.74
2023-05-02T18:56:16.056Z,40.98
2023-05-02T18:58:17.659Z,41.04
2023-05-02T19:00:19.796Z,41.45
2023-05-02T19:02:21.926Z,41.28
2023-05-02T19:04:24.855Z,41.57
2023-05-02T19:06:26.610Z,41.69
2023-05-02T19:08:29.643Z,41.38
2023-05-02T19:10:31.284Z,41.94
2023-05-02T19:12:33.048Z,41.78
2023-05-02T19:14:35.066Z,41.70
2023-05-02T19:16:37.805Z,42.06
2023-05-02T19:18:40.465Z,41.64
2023-05-02T19:20:42.347Z,41.90
2023-05-02T19:22:43.950Z,41.41
2023-05-02T19:24:46.881Z,41.74
2023-05-02T19:26:50.257Z,42.03
2023-05-02T19:28:52.396Z,41.75
2023-05-02T19:30:53.898Z,42.35
2023-05-02T19:32:55.610Z,42.36
2023-05-02T19:34:57.277Z,42.32
2023-05-02T19:36:59.196Z,41.93
2023-05-02T19:39:01.009Z,42.32
2023-05-02T19:41:04.242Z,42.38
2023-05-02T19:43:05.921Z,42.74
2023-05-02T19:45:08.635Z,42.57
2023-05-02T19:47:10.440Z,42.91
2023-05-02T19:49:12.015Z,43.65
2023-05-02T19:51:13.830Z,43.41
2023-05-02T19:53:15.660Z,43.95
2023-05-02T19:55:19.176Z,44.11
2023-05-02T19:57:22.263Z,44.26
2023-05-02T19:59:24.083Z,44.58
2023-05-02T20:01:27.255Z,44.71
2023-05-02T20:03:29.343Z,44.29
2023-05-02T20:05:31.170Z,44.70
2023-05-02T20:07:32.819Z,45.05
2023-05-02T20:09:34.440Z,44.96
2023-05-02T20:11:36.238Z,44.77
2023-05-02T20:13:39.460Z,44.48
2023-05-02T20:15:40.987Z,44.58
2023-05-02T20:17:42.825Z,44.56
2023-05-02T20:19:44.382Z,44.59
2023-05-02T20:21:46.197Z,45.31
2023-05-02T20:23:48.044Z,45.48
2023-05-02T20:25:49.878Z,45.58
2023-05-02T20:27:52.346Z,45.46
2023-05-02T20:29:55.336Z,45.50
2023-05-02T20:31:56.977Z,45.57
2023-05-02T20:33:58.665Z,45.66
2023-05-02T20:36:00.210Z,45.70
2023-05-02T20:38:01.844Z,46.62
2023-05-02T20:40:04.534Z,46.40
2023-05-02T20:42:06.442Z,46.33
2023-05-02T20:44:08.052Z,47.24
2023-05-02T20:46:11.391Z,47.17
2023-05-02T20:48:17.073Z,46.75
2023-05-02T20:50:18.990Z,47.57
2023-05-02T20:52:21.064Z,47.69
2023-05-02T20:54:22.673Z,47.68
2023-05-02T20:56:24.486Z,48.39
2023-05-02T20:58:26.343Z,48.44
2023-05-02T21:00:28.329Z,47.92
2023-05-02T21:02:31.380Z,48.52
2023-05-02T21:04:33.545Z,48.33
2023-05-02T21:06:35.528Z,48.50
2023-05-02T21:08:37.178Z,49.24
2023-05-02T21:10:38.757Z,49.15
2023-05-02T21:12:40.519Z,49.76
2023-05-02T21:14:42.132Z,49.42
2023-05-02T21:16:43.761Z,49.83
2023-05-02T21:18:47.874Z,49.57
2023-05-02T21:20:49.738Z,50.00
2023-05-02T21:22:51.991Z,50.10
2023-05-02T21:24:55.792Z,50.08
2023-05-02T21:26:57.653Z,50.75
2023-05-02T21:28:59.477Z,50.09
2023-05-02T21:31:01.419Z,50.59
2023-05-02T21:33:03.290Z,50.43
2023-05-02T21:35:08.654Z,51.01
2023-05-02T21:37:10.837Z,51.28
2023-05-02T21:39:12.441Z,50.96
2023-05-02T21:41:15.050Z,51.33
2023-05-02T21:43:16.759Z,51.40
2023-05-02T21:45:18.588Z,51.25
2023-05-02T21:47:20.487Z,51.43
2023-05-02T21:49:22.217Z,51.65
2023-05-02T21:51:25.092Z,51.76
2023-05-02T21:53:27.119Z,51.78
2023-05-02T21:55:28.788Z,52.03
2023-05-02T21:57:30.728Z,52.63
2023-05-02T21:59:32.310Z,52.41
2023-05-02T22:01:34.114Z,53.02
2023-05-02T22:03:35.961Z,53.14
2023-05-02T22:05:38.746Z,53.16
2023-05-02T22:07:42.151Z,52.93
2023-05-02T22:09:43.653Z,52.47
2023-05-02T22:11:45.575Z,52.88
2023-05-02T22:13:47.725Z,53.28
2023-05-02T22:15:49.388Z,52.80
2023-05-02T22:17:51.194Z,53.09
2023-05-02T22:19:54.712Z,53.54
2023-05-02T22:21:57.448Z,53.72
2023-05-02T22:24:00.396Z,53.62
2023-05-02T22:26:01.931Z,53.67
2023-05-02T22:28:03.765Z,53.90
2023-05-02T22:30:06.913Z,54.27
2023-05-02T22:32:10.363Z,53.85
2023-05-02T22:34:11.905Z,53.69
2023-05-02T22:36:14.373Z,54.40
2023-05-02T22:38:16.466Z,53.96
2023-05-02T22:40:19.791Z,54.04
2023-05-02T22:42:21.454Z,54.50
2023-05-02T22:44:23.465Z,54.48
2023-05-02T22:46:25.224Z,54.42
2023-05-02T22:48:27.060Z,54.94
2023-05-02T22:50:29.828Z,54.72
2023-05-02T22:52:31.704Z,54.52
2023-05-02T22:54:33.228Z,54.71
2023-05-02T22:56:36.718Z,54.73
2023-05-02T22:58:38.231Z,55.16
2023-05-02T23:00:39.850Z,55.36
2023-05-02T23:02:41.467Z,55.59
2023-05-02T23:04:43.096Z,55.49
2023-05-02T23:06:45.736Z,55.49
2023-05-02T23:08:49.908Z,55.84
2023-05-02T23:10:52.102Z,55.20
2023-05-02T23:12:55.202Z,55.99
2023-05-02T23:14:56.920Z,55.46
2023-05-02T23:16:58.690Z,55.94
2023-05-02T23:19:00.226Z,55.71
2023-05-02T23:21:03.081Z,56.40
2023-05-02T23:23:05.145Z,55.95
2023-05-02T23:25:08.070Z,55.99
2023-05-02T23:27:09.581Z,55.99
2023-05-02T23:29:12.478Z,56.41
2023-05-02T23:31:14.262Z,57.10
2023-05-02T23:33:16.023Z,56.29
2023-05-02T23:35:17.879Z,56.48
2023-05-02T23:37:19.549Z,56.29
2023-05-02T23:39:21.742Z,56.49
2023-05-02T23:41:23.684Z,57.49
2023-05-02T23:43:25.375Z,57.17
2023-05-02T23:45:28.991Z,57.13
2023-05-02T23:47:30.781Z,57.08
2023-05-02T23:49:32.417Z,57.07
2023-05-02T23:51:34.019Z,56.80
2023-05-02T23:53:35.848Z,56.72
2023-05-02T23:55:37.514Z,57.20
2023-05-02T23:57:39.322Z,56.62
2023-05-02T23:59:41.416Z,57.32
